sensor_id;sensor_type;location;lat;lon;timestamp;pressure;altitude;pressure_sealevel;temperature;humidity
34566;BME280;20803;42.676;26.348;2023-08-07T00:01:45;97708.16;;;24.92;57.00
34566;BME280;20803;42.676;26.348;2023-08-07T00:04:10;97699.09;;;24.94;57.32
34566;BME280;20803;42.676;26.348;2023-08-07T00:06:36;97714.28;;;24.96;57.96
34566;BME280;20803;42.676;26.348;2023-08-07T00:09:01;97716.13;;;24.70;59.47
34566;BME280;20803;42.676;26.348;2023-08-07T00:11:26;97709.75;;;24.63;59.88
34566;BME280;20803;42.676;26.348;2023-08-07T00:13:53;97706.47;;;24.54;60.62
34566;BME280;20803;42.676;26.348;2023-08-07T00:16:19;97701.03;;;24.56;61.18
34566;BME280;20803;42.676;26.348;2023-08-07T00:18:44;97707.44;;;24.62;61.08
34566;BME280;20803;42.676;26.348;2023-08-07T00:21:09;97717.66;;;24.46;62.58
34566;BME280;20803;42.676;26.348;2023-08-07T00:23:35;97717.69;;;24.41;62.97
34566;BME280;20803;42.676;26.348;2023-08-07T00:26:00;97717.94;;;24.43;63.13
34566;BME280;20803;42.676;26.348;2023-08-07T00:28:25;97725.13;;;24.49;62.87
34566;BME280;20803;42.676;26.348;2023-08-07T00:30:51;97714.81;;;24.46;62.02
34566;BME280;20803;42.676;26.348;2023-08-07T00:33:16;97731.13;;;24.40;62.37
34566;BME280;20803;42.676;26.348;2023-08-07T00:35:42;97735.03;;;24.37;62.49
34566;BME280;20803;42.676;26.348;2023-08-07T00:38:07;97728.03;;;24.08;64.04
34566;BME280;20803;42.676;26.348;2023-08-07T00:40:37;97727.50;;;24.10;64.75
34566;BME280;20803;42.676;26.348;2023-08-07T00:43:03;97732.75;;;24.00;65.12
34566;BME280;20803;42.676;26.348;2023-08-07T00:45:29;97739.06;;;24.17;64.36
34566;BME280;20803;42.676;26.348;2023-08-07T00:47:54;97731.53;;;24.25;64.30
34566;BME280;20803;42.676;26.348;2023-08-07T00:50:20;97733.59;;;24.25;64.06
34566;BME280;20803;42.676;26.348;2023-08-07T00:52:45;97738.25;;;24.22;63.95
34566;BME280;20803;42.676;26.348;2023-08-07T00:55:11;97741.41;;;24.19;63.64
34566;BME280;20803;42.676;26.348;2023-08-07T00:57:36;97755.28;;;24.22;63.45
34566;BME280;20803;42.676;26.348;2023-08-07T01:00:02;97729.81;;;24.11;63.55
34566;BME280;20803;42.676;26.348;2023-08-07T01:02:28;97741.94;;;24.12;63.67
34566;BME280;20803;42.676;26.348;2023-08-07T01:04:53;97742.84;;;23.96;64.06
34566;BME280;20803;42.676;26.348;2023-08-07T01:07:19;97735.09;;;23.96;63.58
34566;BME280;20803;42.676;26.348;2023-08-07T01:09:45;97746.41;;;24.02;61.97
34566;BME280;20803;42.676;26.348;2023-08-07T01:12:19;97744.75;;;23.82;59.91
34566;BME280;20803;42.676;26.348;2023-08-07T01:17:23;97747.16;;;23.67;58.78
34566;BME280;20803;42.676;26.348;2023-08-07T01:19:50;97741.44;;;23.78;58.46
34566;BME280;20803;42.676;26.348;2023-08-07T01:22:17;97744.78;;;23.76;57.47
34566;BME280;20803;42.676;26.348;2023-08-07T01:24:45;97742.97;;;23.73;57.47
34566;BME280;20803;42.676;26.348;2023-08-07T01:35:22;97750.41;;;23.82;55.91
34566;BME280;20803;42.676;26.348;2023-08-07T01:37:51;97763.06;;;23.81;55.45
34566;BME280;20803;42.676;26.348;2023-08-07T01:40:19;97767.00;;;23.72;55.34
34566;BME280;20803;42.676;26.348;2023-08-07T01:42:46;97762.81;;;23.79;55.31
34566;BME280;20803;42.676;26.348;2023-08-07T01:45:12;97777.03;;;23.73;55.15
34566;BME280;20803;42.676;26.348;2023-08-07T01:47:38;97768.25;;;23.77;55.12
34566;BME280;20803;42.676;26.348;2023-08-07T01:50:03;97774.19;;;23.73;54.90
34566;BME280;20803;42.676;26.348;2023-08-07T01:52:29;97773.66;;;23.75;54.52
34566;BME280;20803;42.676;26.348;2023-08-07T01:54:55;97773.13;;;23.82;54.45
34566;BME280;20803;42.676;26.348;2023-08-07T01:57:20;97781.38;;;23.80;54.34
34566;BME280;20803;42.676;26.348;2023-08-07T01:59:46;97769.63;;;23.65;54.29
34566;BME280;20803;42.676;26.348;2023-08-07T02:02:11;97783.34;;;23.50;54.26
34566;BME280;20803;42.676;26.348;2023-08-07T02:04:36;97778.94;;;23.60;54.20
34566;BME280;20803;42.676;26.348;2023-08-07T02:07:02;97784.91;;;23.51;53.97
34566;BME280;20803;42.676;26.348;2023-08-07T02:09:27;97780.78;;;23.40;54.35
34566;BME280;20803;42.676;26.348;2023-08-07T02:11:53;97781.56;;;23.47;54.77
34566;BME280;20803;42.676;26.348;2023-08-07T02:14:18;97769.19;;;23.38;54.38
34566;BME280;20803;42.676;26.348;2023-08-07T02:16:44;97784.88;;;23.45;54.20
34566;BME280;20803;42.676;26.348;2023-08-07T02:19:09;97789.28;;;23.52;54.25
34566;BME280;20803;42.676;26.348;2023-08-07T02:21:35;97784.41;;;23.47;53.99
34566;BME280;20803;42.676;26.348;2023-08-07T02:24:00;97787.25;;;23.47;54.05
34566;BME280;20803;42.676;26.348;2023-08-07T02:26:25;97788.97;;;23.55;53.64
34566;BME280;20803;42.676;26.348;2023-08-07T02:28:51;97788.72;;;23.59;53.76
34566;BME280;20803;42.676;26.348;2023-08-07T02:31:16;97788.25;;;23.49;53.84
34566;BME280;20803;42.676;26.348;2023-08-07T02:33:41;97805.31;;;23.32;53.86
34566;BME280;20803;42.676;26.348;2023-08-07T02:36:07;97796.75;;;23.49;53.79
34566;BME280;20803;42.676;26.348;2023-08-07T02:38:33;97791.94;;;23.27;54.22
34566;BME280;20803;42.676;26.348;2023-08-07T02:40:58;97801.44;;;23.30;54.35
34566;BME280;20803;42.676;26.348;2023-08-07T02:43:24;97802.22;;;23.36;54.12
34566;BME280;20803;42.676;26.348;2023-08-07T02:45:51;97798.34;;;23.33;54.40
34566;BME280;20803;42.676;26.348;2023-08-07T02:48:16;97807.88;;;23.30;54.57
34566;BME280;20803;42.676;26.348;2023-08-07T02:50:42;97791.16;;;23.27;55.04
34566;BME280;20803;42.676;26.348;2023-08-07T02:53:10;97804.28;;;23.24;55.42
34566;BME280;20803;42.676;26.348;2023-08-07T02:55:36;97807.94;;;23.19;55.74
34566;BME280;20803;42.676;26.348;2023-08-07T02:58:01;97812.31;;;23.20;56.13
34566;BME280;20803;42.676;26.348;2023-08-07T03:00:26;97819.03;;;23.06;56.23
34566;BME280;20803;42.676;26.348;2023-08-07T03:02:52;97818.53;;;23.08;56.54
34566;BME280;20803;42.676;26.348;2023-08-07T03:05:18;97831.72;;;22.66;57.37
34566;BME280;20803;42.676;26.348;2023-08-07T03:07:43;97823.72;;;22.64;57.71
34566;BME280;20803;42.676;26.348;2023-08-07T03:10:08;97853.59;;;22.65;58.13
34566;BME280;20803;42.676;26.348;2023-08-07T03:12:34;97847.16;;;22.54;58.78
34566;BME280;20803;42.676;26.348;2023-08-07T03:14:59;97860.81;;;22.50;58.77
34566;BME280;20803;42.676;26.348;2023-08-07T03:17:25;97866.47;;;22.55;58.62
34566;BME280;20803;42.676;26.348;2023-08-07T03:19:50;97863.38;;;22.59;59.12
34566;BME280;20803;42.676;26.348;2023-08-07T03:22:15;97869.31;;;22.55;59.48
34566;BME280;20803;42.676;26.348;2023-08-07T03:24:46;97862.09;;;22.54;59.34
34566;BME280;20803;42.676;26.348;2023-08-07T03:27:11;97870.81;;;22.40;60.01
34566;BME280;20803;42.676;26.348;2023-08-07T03:29:37;97880.09;;;22.40;60.81
34566;BME280;20803;42.676;26.348;2023-08-07T03:32:02;97878.81;;;22.41;60.44
34566;BME280;20803;42.676;26.348;2023-08-07T03:34:28;97888.84;;;22.31;60.68
34566;BME280;20803;42.676;26.348;2023-08-07T03:36:53;97897.56;;;22.33;61.44
34566;BME280;20803;42.676;26.348;2023-08-07T03:39:19;97891.41;;;22.23;61.84
34566;BME280;20803;42.676;26.348;2023-08-07T03:41:44;97885.47;;;22.27;61.82
34566;BME280;20803;42.676;26.348;2023-08-07T03:44:09;97900.66;;;22.13;62.58
34566;BME280;20803;42.676;26.348;2023-08-07T03:46:35;97884.94;;;22.12;62.68
34566;BME280;20803;42.676;26.348;2023-08-07T03:49:00;97907.31;;;22.10;63.17
34566;BME280;20803;42.676;26.348;2023-08-07T03:51:26;97909.66;;;22.22;62.93
34566;BME280;20803;42.676;26.348;2023-08-07T03:53:51;97919.72;;;22.29;62.08
34566;BME280;20803;42.676;26.348;2023-08-07T03:56:17;97922.22;;;22.05;63.28
34566;BME280;20803;42.676;26.348;2023-08-07T03:58:42;97928.94;;;22.13;63.50
34566;BME280;20803;42.676;26.348;2023-08-07T04:01:07;97931.00;;;22.12;63.08
34566;BME280;20803;42.676;26.348;2023-08-07T04:03:33;97921.72;;;22.06;62.74
34566;BME280;20803;42.676;26.348;2023-08-07T04:05:58;97937.16;;;22.11;63.72
34566;BME280;20803;42.676;26.348;2023-08-07T04:08:25;97936.69;;;22.29;63.02
34566;BME280;20803;42.676;26.348;2023-08-07T04:11:01;97942.66;;;22.42;61.71
34566;BME280;20803;42.676;26.348;2023-08-07T04:13:27;97934.66;;;22.41;60.57
34566;BME280;20803;42.676;26.348;2023-08-07T04:15:53;97937.97;;;22.22;61.77
34566;BME280;20803;42.676;26.348;2023-08-07T04:18:18;97935.69;;;22.38;61.52
34566;BME280;20803;42.676;26.348;2023-08-07T04:20:54;97940.31;;;22.41;61.37
34566;BME280;20803;42.676;26.348;2023-08-07T04:23:20;97935.44;;;22.41;61.28
34566;BME280;20803;42.676;26.348;2023-08-07T04:25:47;97958.38;;;22.49;60.73
34566;BME280;20803;42.676;26.348;2023-08-07T04:28:12;97949.88;;;22.49;60.91
34566;BME280;20803;42.676;26.348;2023-08-07T04:30:38;97953.22;;;22.58;60.58
34566;BME280;20803;42.676;26.348;2023-08-07T04:33:03;97957.13;;;22.72;60.50
34566;BME280;20803;42.676;26.348;2023-08-07T04:35:30;97964.09;;;22.77;59.14
34566;BME280;20803;42.676;26.348;2023-08-07T04:37:55;97968.75;;;22.80;59.26
34566;BME280;20803;42.676;26.348;2023-08-07T04:40:21;97966.16;;;22.76;58.96
34566;BME280;20803;42.676;26.348;2023-08-07T04:42:49;97965.09;;;22.62;59.58
34566;BME280;20803;42.676;26.348;2023-08-07T04:45:14;97972.53;;;22.60;60.46
34566;BME280;20803;42.676;26.348;2023-08-07T04:47:40;97978.72;;;22.58;59.72
34566;BME280;20803;42.676;26.348;2023-08-07T04:50:06;97972.28;;;22.69;59.77
34566;BME280;20803;42.676;26.348;2023-08-07T04:52:32;97979.03;;;22.77;59.67
34566;BME280;20803;42.676;26.348;2023-08-07T04:54:57;97966.69;;;22.91;59.59
34566;BME280;20803;42.676;26.348;2023-08-07T04:57:23;97970.81;;;23.07;58.19
34566;BME280;20803;42.676;26.348;2023-08-07T04:59:48;97972.59;;;23.21;57.29
34566;BME280;20803;42.676;26.348;2023-08-07T05:02:13;97979.84;;;23.22;57.00
34566;BME280;20803;42.676;26.348;2023-08-07T05:04:39;97983.16;;;23.26;55.71
34566;BME280;20803;42.676;26.348;2023-08-07T05:07:05;97990.91;;;22.98;56.62
34566;BME280;20803;42.676;26.348;2023-08-07T05:09:30;97989.88;;;23.12;56.80
34566;BME280;20803;42.676;26.348;2023-08-07T05:11:56;97999.69;;;23.22;55.67
34566;BME280;20803;42.676;26.348;2023-08-07T05:14:21;98003.78;;;23.32;55.94
34566;BME280;20803;42.676;26.348;2023-08-07T05:16:48;97994.50;;;23.43;55.13
34566;BME280;20803;42.676;26.348;2023-08-07T05:19:13;98005.63;;;23.47;54.57
34566;BME280;20803;42.676;26.348;2023-08-07T05:21:38;98009.47;;;23.60;54.39
34566;BME280;20803;42.676;26.348;2023-08-07T05:24:04;98005.84;;;23.65;53.71
34566;BME280;20803;42.676;26.348;2023-08-07T05:26:30;97992.19;;;23.64;53.63
34566;BME280;20803;42.676;26.348;2023-08-07T05:28:56;98019.00;;;23.63;53.70
34566;BME280;20803;42.676;26.348;2023-08-07T05:31:24;98006.31;;;23.80;53.71
34566;BME280;20803;42.676;26.348;2023-08-07T05:33:49;98005.81;;;23.82;52.70
34566;BME280;20803;42.676;26.348;2023-08-07T05:36:15;98006.78;;;24.01;52.40
34566;BME280;20803;42.676;26.348;2023-08-07T05:38:40;98003.41;;;23.97;52.01
34566;BME280;20803;42.676;26.348;2023-08-07T05:41:06;98015.25;;;24.12;51.77
34566;BME280;20803;42.676;26.348;2023-08-07T05:43:31;98018.88;;;24.18;51.39
34566;BME280;20803;42.676;26.348;2023-08-07T05:45:57;97999.69;;;24.36;51.09
34566;BME280;20803;42.676;26.348;2023-08-07T05:48:22;98002.25;;;24.45;50.91
34566;BME280;20803;42.676;26.348;2023-08-07T05:50:48;98007.41;;;24.41;50.93
34566;BME280;20803;42.676;26.348;2023-08-07T05:53:13;98016.63;;;24.52;50.92
34566;BME280;20803;42.676;26.348;2023-08-07T05:55:39;98012.59;;;24.83;50.30
34566;BME280;20803;42.676;26.348;2023-08-07T05:58:06;98008.69;;;24.92;49.22
34566;BME280;20803;42.676;26.348;2023-08-07T06:00:31;98004.84;;;24.84;49.20
34566;BME280;20803;42.676;26.348;2023-08-07T06:02:57;98013.75;;;24.63;49.28
34566;BME280;20803;42.676;26.348;2023-08-07T06:05:22;98016.84;;;24.65;49.55
34566;BME280;20803;42.676;26.348;2023-08-07T06:07:48;97993.63;;;24.61;49.10
34566;BME280;20803;42.676;26.348;2023-08-07T06:10:13;98008.09;;;24.58;49.52
34566;BME280;20803;42.676;26.348;2023-08-07T06:12:39;98004.47;;;24.63;49.41
34566;BME280;20803;42.676;26.348;2023-08-07T06:15:05;98008.56;;;24.67;48.84
34566;BME280;20803;42.676;26.348;2023-08-07T06:17:30;98016.53;;;24.75;48.00
34566;BME280;20803;42.676;26.348;2023-08-07T06:19:56;98017.38;;;24.64;48.16
34566;BME280;20803;42.676;26.348;2023-08-07T06:22:22;98026.34;;;24.74;47.99
34566;BME280;20803;42.676;26.348;2023-08-07T06:24:47;98022.91;;;24.92;47.21
34566;BME280;20803;42.676;26.348;2023-08-07T06:27:14;98026.81;;;24.83;47.32
34566;BME280;20803;42.676;26.348;2023-08-07T06:29:39;98033.78;;;24.88;47.10
34566;BME280;20803;42.676;26.348;2023-08-07T06:32:05;98028.84;;;24.94;46.86
34566;BME280;20803;42.676;26.348;2023-08-07T06:34:31;98044.44;;;25.17;47.02
34566;BME280;20803;42.676;26.348;2023-08-07T06:36:56;98041.81;;;25.25;47.20
34566;BME280;20803;42.676;26.348;2023-08-07T06:39:22;98036.03;;;25.36;45.20
34566;BME280;20803;42.676;26.348;2023-08-07T06:41:47;98044.91;;;25.21;45.46
34566;BME280;20803;42.676;26.348;2023-08-07T06:44:13;98036.56;;;24.99;45.15
34566;BME280;20803;42.676;26.348;2023-08-07T06:46:38;98040.19;;;24.99;45.91
34566;BME280;20803;42.676;26.348;2023-08-07T06:49:03;98040.88;;;25.11;45.83
34566;BME280;20803;42.676;26.348;2023-08-07T06:51:29;98033.59;;;25.16;45.93
34566;BME280;20803;42.676;26.348;2023-08-07T06:53:54;98046.88;;;25.02;46.03
34566;BME280;20803;42.676;26.348;2023-08-07T06:56:20;98045.06;;;25.04;45.72
34566;BME280;20803;42.676;26.348;2023-08-07T06:58:45;98057.44;;;25.07;45.51
34566;BME280;20803;42.676;26.348;2023-08-07T07:01:11;98055.53;;;25.21;46.03
34566;BME280;20803;42.676;26.348;2023-08-07T07:03:36;98056.75;;;25.31;45.15
34566;BME280;20803;42.676;26.348;2023-08-07T07:06:02;98061.63;;;25.36;45.77
34566;BME280;20803;42.676;26.348;2023-08-07T07:08:27;98062.63;;;25.38;45.38
34566;BME280;20803;42.676;26.348;2023-08-07T07:10:53;98055.28;;;25.54;45.27
34566;BME280;20803;42.676;26.348;2023-08-07T07:13:18;98061.66;;;25.66;43.81
34566;BME280;20803;42.676;26.348;2023-08-07T07:15:44;98068.28;;;25.79;44.27
34566;BME280;20803;42.676;26.348;2023-08-07T07:18:09;98059.75;;;25.74;43.05
34566;BME280;20803;42.676;26.348;2023-08-07T07:20:34;98063.56;;;25.82;43.06
34566;BME280;20803;42.676;26.348;2023-08-07T07:23:00;98067.19;;;25.82;43.27
34566;BME280;20803;42.676;26.348;2023-08-07T07:25:25;98076.16;;;25.92;42.47
34566;BME280;20803;42.676;26.348;2023-08-07T07:27:50;98078.06;;;26.08;42.34
34566;BME280;20803;42.676;26.348;2023-08-07T07:30:16;98071.78;;;26.15;42.66
34566;BME280;20803;42.676;26.348;2023-08-07T07:32:42;98077.75;;;26.12;41.95
34566;BME280;20803;42.676;26.348;2023-08-07T07:35:07;98082.06;;;26.24;42.21
34566;BME280;20803;42.676;26.348;2023-08-07T07:37:33;98069.31;;;26.49;41.48
34566;BME280;20803;42.676;26.348;2023-08-07T07:39:59;98080.28;;;26.64;41.90
34566;BME280;20803;42.676;26.348;2023-08-07T07:42:24;98081.25;;;26.91;40.70
34566;BME280;20803;42.676;26.348;2023-08-07T07:44:50;98079.06;;;27.16;40.51
34566;BME280;20803;42.676;26.348;2023-08-07T07:47:15;98080.09;;;27.18;40.08
34566;BME280;20803;42.676;26.348;2023-08-07T07:49:45;98082.47;;;27.14;39.87
34566;BME280;20803;42.676;26.348;2023-08-07T07:52:12;98075.16;;;27.19;39.14
34566;BME280;20803;42.676;26.348;2023-08-07T07:54:38;98075.44;;;27.15;38.90
34566;BME280;20803;42.676;26.348;2023-08-07T07:57:04;98068.25;;;26.95;39.10
34566;BME280;20803;42.676;26.348;2023-08-07T07:59:29;98075.53;;;26.91;39.10
34566;BME280;20803;42.676;26.348;2023-08-07T08:01:54;98077.63;;;26.90;38.57
34566;BME280;20803;42.676;26.348;2023-08-07T08:04:20;98072.47;;;26.89;38.54
34566;BME280;20803;42.676;26.348;2023-08-07T08:06:45;98071.13;;;26.71;38.80
34566;BME280;20803;42.676;26.348;2023-08-07T08:09:13;98073.06;;;26.63;39.13
34566;BME280;20803;42.676;26.348;2023-08-07T08:11:38;98074.72;;;26.72;40.13
34566;BME280;20803;42.676;26.348;2023-08-07T08:14:04;98071.75;;;26.83;39.38
34566;BME280;20803;42.676;26.348;2023-08-07T08:16:29;98071.09;;;26.95;39.95
34566;BME280;20803;42.676;26.348;2023-08-07T08:18:55;98076.53;;;27.12;39.46
34566;BME280;20803;42.676;26.348;2023-08-07T08:21:20;98071.28;;;27.16;38.95
34566;BME280;20803;42.676;26.348;2023-08-07T08:23:46;98069.91;;;27.23;38.60
34566;BME280;20803;42.676;26.348;2023-08-07T08:26:11;98077.28;;;27.31;39.07
34566;BME280;20803;42.676;26.348;2023-08-07T08:28:37;98077.50;;;27.33;38.63
34566;BME280;20803;42.676;26.348;2023-08-07T08:31:03;98081.91;;;27.34;38.74
34566;BME280;20803;42.676;26.348;2023-08-07T08:33:31;98083.00;;;27.31;38.53
34566;BME280;20803;42.676;26.348;2023-08-07T08:35:56;98089.41;;;27.37;39.23
34566;BME280;20803;42.676;26.348;2023-08-07T08:38:22;98092.78;;;27.55;38.18
34566;BME280;20803;42.676;26.348;2023-08-07T08:40:51;98083.69;;;27.56;38.66
34566;BME280;20803;42.676;26.348;2023-08-07T08:43:16;98087.66;;;27.66;38.23
34566;BME280;20803;42.676;26.348;2023-08-07T08:45:43;98091.03;;;27.65;37.67
34566;BME280;20803;42.676;26.348;2023-08-07T08:48:12;98089.53;;;27.77;37.26
34566;BME280;20803;42.676;26.348;2023-08-07T08:50:42;98086.59;;;27.82;37.34
34566;BME280;20803;42.676;26.348;2023-08-07T08:53:09;98093.53;;;28.00;37.85
34566;BME280;20803;42.676;26.348;2023-08-07T08:55:35;98076.53;;;28.08;37.55
34566;BME280;20803;42.676;26.348;2023-08-07T08:58:01;98081.16;;;28.11;37.23
34566;BME280;20803;42.676;26.348;2023-08-07T09:00:27;98079.91;;;28.06;36.72
34566;BME280;20803;42.676;26.348;2023-08-07T09:02:54;98075.31;;;28.03;36.71
34566;BME280;20803;42.676;26.348;2023-08-07T09:05:20;98078.84;;;28.09;37.04
34566;BME280;20803;42.676;26.348;2023-08-07T09:07:47;98078.84;;;28.09;36.73
34566;BME280;20803;42.676;26.348;2023-08-07T09:10:13;98081.06;;;28.16;36.89
34566;BME280;20803;42.676;26.348;2023-08-07T09:12:42;98086.22;;;28.18;36.20
34566;BME280;20803;42.676;26.348;2023-08-07T09:15:11;98085.91;;;28.21;35.75
34566;BME280;20803;42.676;26.348;2023-08-07T09:17:42;98091.25;;;28.12;35.92
34566;BME280;20803;42.676;26.348;2023-08-07T09:20:10;98086.00;;;28.16;36.37
34566;BME280;20803;42.676;26.348;2023-08-07T09:22:40;98094.47;;;28.21;35.50
34566;BME280;20803;42.676;26.348;2023-08-07T09:25:06;98095.44;;;28.24;35.56
34566;BME280;20803;42.676;26.348;2023-08-07T09:27:32;98091.19;;;28.17;35.45
34566;BME280;20803;42.676;26.348;2023-08-07T09:29:58;98080.09;;;28.27;35.12
34566;BME280;20803;42.676;26.348;2023-08-07T09:32:24;98092.41;;;28.35;36.13
34566;BME280;20803;42.676;26.348;2023-08-07T09:34:50;98092.38;;;28.48;36.10
34566;BME280;20803;42.676;26.348;2023-08-07T09:37:19;98092.59;;;28.63;35.14
34566;BME280;20803;42.676;26.348;2023-08-07T09:39:44;98084.78;;;28.64;34.99
34566;BME280;20803;42.676;26.348;2023-08-07T09:42:15;98083.81;;;28.75;35.67
34566;BME280;20803;42.676;26.348;2023-08-07T09:44:40;98093.41;;;28.77;33.63
34566;BME280;20803;42.676;26.348;2023-08-07T09:47:16;98092.47;;;28.69;34.25
34566;BME280;20803;42.676;26.348;2023-08-07T09:49:43;98097.00;;;28.64;35.77
34566;BME280;20803;42.676;26.348;2023-08-07T09:52:11;98106.44;;;28.86;35.66
34566;BME280;20803;42.676;26.348;2023-08-07T09:54:38;98100.19;;;28.74;35.32
34566;BME280;20803;42.676;26.348;2023-08-07T09:57:04;98104.69;;;28.70;35.93
34566;BME280;20803;42.676;26.348;2023-08-07T09:59:32;98105.16;;;28.74;35.86
34566;BME280;20803;42.676;26.348;2023-08-07T10:01:59;98099.97;;;28.85;36.66
34566;BME280;20803;42.676;26.348;2023-08-07T10:04:26;98095.00;;;28.99;35.49
34566;BME280;20803;42.676;26.348;2023-08-07T10:06:52;98103.78;;;29.01;34.05
34566;BME280;20803;42.676;26.348;2023-08-07T10:09:18;98102.03;;;28.98;33.89
34566;BME280;20803;42.676;26.348;2023-08-07T10:11:44;98107.22;;;28.86;33.08
34566;BME280;20803;42.676;26.348;2023-08-07T10:14:10;98106.97;;;28.97;34.37
34566;BME280;20803;42.676;26.348;2023-08-07T10:16:38;98097.00;;;28.91;34.25
34566;BME280;20803;42.676;26.348;2023-08-07T10:19:09;98095.34;;;28.95;35.07
34566;BME280;20803;42.676;26.348;2023-08-07T10:21:41;98111.84;;;29.02;34.68
34566;BME280;20803;42.676;26.348;2023-08-07T10:24:08;98108.50;;;29.12;34.98
34566;BME280;20803;42.676;26.348;2023-08-07T10:26:35;98101.88;;;29.17;34.77
34566;BME280;20803;42.676;26.348;2023-08-07T10:29:02;98091.50;;;29.27;35.01
34566;BME280;20803;42.676;26.348;2023-08-07T10:31:30;98109.22;;;29.25;34.34
34566;BME280;20803;42.676;26.348;2023-08-07T10:33:57;98104.53;;;29.15;35.42
34566;BME280;20803;42.676;26.348;2023-08-07T10:36:23;98104.41;;;29.33;35.25
34566;BME280;20803;42.676;26.348;2023-08-07T10:38:49;98105.66;;;29.46;35.98
34566;BME280;20803;42.676;26.348;2023-08-07T10:41:17;98109.44;;;29.61;34.84
34566;BME280;20803;42.676;26.348;2023-08-07T10:43:44;98109.38;;;29.74;33.85
34566;BME280;20803;42.676;26.348;2023-08-07T10:46:15;98099.03;;;29.71;31.55
34566;BME280;20803;42.676;26.348;2023-08-07T10:48:54;98102.34;;;29.75;31.42
34566;BME280;20803;42.676;26.348;2023-08-07T10:51:20;98101.81;;;29.84;32.42
34566;BME280;20803;42.676;26.348;2023-08-07T10:53:49;98102.75;;;29.79;30.92
34566;BME280;20803;42.676;26.348;2023-08-07T10:56:31;98094.84;;;29.72;31.78
34566;BME280;20803;42.676;26.348;2023-08-07T10:58:56;98098.75;;;29.62;31.85
34566;BME280;20803;42.676;26.348;2023-08-07T11:04:05;98092.31;;;29.90;32.22
34566;BME280;20803;42.676;26.348;2023-08-07T11:06:35;98094.78;;;30.06;31.78
34566;BME280;20803;42.676;26.348;2023-08-07T11:09:03;98090.31;;;29.98;31.37
34566;BME280;20803;42.676;26.348;2023-08-07T11:11:38;98092.94;;;30.16;31.74
34566;BME280;20803;42.676;26.348;2023-08-07T11:14:08;98081.47;;;30.16;31.53
34566;BME280;20803;42.676;26.348;2023-08-07T11:16:34;98083.22;;;30.19;33.22
34566;BME280;20803;42.676;26.348;2023-08-07T11:19:00;98085.63;;;30.36;32.08
34566;BME280;20803;42.676;26.348;2023-08-07T11:21:26;98088.28;;;30.34;32.31
34566;BME280;20803;42.676;26.348;2023-08-07T11:23:52;98083.69;;;30.31;33.08
34566;BME280;20803;42.676;26.348;2023-08-07T11:26:18;98070.88;;;30.32;33.51
34566;BME280;20803;42.676;26.348;2023-08-07T11:28:47;98064.38;;;30.32;31.69
34566;BME280;20803;42.676;26.348;2023-08-07T11:31:12;98071.25;;;30.29;31.48
34566;BME280;20803;42.676;26.348;2023-08-07T11:33:38;98072.41;;;30.33;32.73
34566;BME280;20803;42.676;26.348;2023-08-07T11:36:10;98063.50;;;30.16;32.18
34566;BME280;20803;42.676;26.348;2023-08-07T11:38:43;98070.06;;;30.24;32.61
34566;BME280;20803;42.676;26.348;2023-08-07T11:41:10;98061.31;;;30.30;31.07
34566;BME280;20803;42.676;26.348;2023-08-07T11:43:36;98067.31;;;30.11;30.00
34566;BME280;20803;42.676;26.348;2023-08-07T11:46:06;98061.63;;;30.18;31.05
34566;BME280;20803;42.676;26.348;2023-08-07T11:48:34;98052.81;;;30.16;30.26
34566;BME280;20803;42.676;26.348;2023-08-07T11:51:00;98062.41;;;30.19;30.50
34566;BME280;20803;42.676;26.348;2023-08-07T11:53:28;98070.41;;;30.20;31.22
34566;BME280;20803;42.676;26.348;2023-08-07T11:56:02;98051.00;;;30.34;30.99
34566;BME280;20803;42.676;26.348;2023-08-07T11:58:35;98047.50;;;30.49;31.10
34566;BME280;20803;42.676;26.348;2023-08-07T12:01:10;98060.19;;;30.61;30.28
34566;BME280;20803;42.676;26.348;2023-08-07T12:03:38;98052.00;;;30.73;29.55
34566;BME280;20803;42.676;26.348;2023-08-07T12:06:05;98047.94;;;30.68;30.59
34566;BME280;20803;42.676;26.348;2023-08-07T12:08:37;98054.72;;;30.78;29.88
34566;BME280;20803;42.676;26.348;2023-08-07T12:11:12;98045.09;;;30.68;29.25
34566;BME280;20803;42.676;26.348;2023-08-07T12:13:43;98043.59;;;30.75;29.68
34566;BME280;20803;42.676;26.348;2023-08-07T12:16:11;98041.47;;;30.75;29.82
34566;BME280;20803;42.676;26.348;2023-08-07T12:18:43;98041.44;;;30.60;29.20
34566;BME280;20803;42.676;26.348;2023-08-07T12:21:09;98039.94;;;30.67;29.42
34566;BME280;20803;42.676;26.348;2023-08-07T12:23:36;98037.84;;;30.67;29.88
34566;BME280;20803;42.676;26.348;2023-08-07T12:26:03;98039.94;;;30.74;30.67
34566;BME280;20803;42.676;26.348;2023-08-07T12:28:31;98033.31;;;30.87;30.28
34566;BME280;20803;42.676;26.348;2023-08-07T12:30:57;98033.50;;;30.89;28.34
34566;BME280;20803;42.676;26.348;2023-08-07T12:33:22;98032.34;;;30.84;28.68
34566;BME280;20803;42.676;26.348;2023-08-07T12:35:47;98033.47;;;30.81;28.32
34566;BME280;20803;42.676;26.348;2023-08-07T12:38:13;98023.59;;;30.97;28.84
34566;BME280;20803;42.676;26.348;2023-08-07T12:40:40;98029.91;;;30.96;29.58
34566;BME280;20803;42.676;26.348;2023-08-07T12:43:06;98033.16;;;31.00;28.84
34566;BME280;20803;42.676;26.348;2023-08-07T12:45:32;98037.53;;;30.86;28.68
34566;BME280;20803;42.676;26.348;2023-08-07T12:47:58;98042.16;;;30.96;28.95
34566;BME280;20803;42.676;26.348;2023-08-07T12:50:23;98036.22;;;31.02;29.14
34566;BME280;20803;42.676;26.348;2023-08-07T12:52:49;98035.69;;;31.11;29.32
34566;BME280;20803;42.676;26.348;2023-08-07T12:55:14;98039.19;;;31.25;29.37
34566;BME280;20803;42.676;26.348;2023-08-07T12:57:41;98039.00;;;31.23;29.72
34566;BME280;20803;42.676;26.348;2023-08-07T13:00:10;98045.91;;;31.27;28.66